MSC Cordoba — A8OF8 — position and weather

sailwx.info

Track history (hours):
 
Tides and Currents Weather Stations Pressure Air Temp Water Temp Dewpoint Dewpoint Depression Visibility Wind Speed Wind Dir Waves Ship Positions

MSC Cordoba

Last reported at 2015-Jan-30 02:20 UTC. Time now 2015-Jan-30 06:25 UTC.
Position N 36°32' W 000°34'.

Length 274 m; draft 11.9 m.

Type: Ship (hazmat cat A). MMSI: 636091473.

Date/timePositionNaut miles runAvg speedWind from/ knotsBaromVisibWave heightAir tempDewpointWater temp
2015-Jan-30 02:20N 36°32' W 000°34'11521.5
2015-Jan-29 21:00N 36°12' W 002°54'12222.5 280 / 411014.010.8 3.019.0 8.515.0
2015-Jan-29 15:34N 35°57' W 005°24'23719.6
2015-Jan-29 03:26N 37°41' W 009°50'6521.9
2015-Jan-29 00:28N 38°45' W 010°07'7521.6
2015-Jan-28 21:00N 40°00' W 010°06'75216.5 300 / 141028.9 5.4 1.018.0 9.214.0
2015-Jan-26 23:33N 50°27' W 000°18'1210.2
2015-Jan-26 22:23N 50°30' E 000°00'1111.4
2015-Jan-26 21:26N 50°34' E 000°17'3 5.6
2015-Jan-26 21:00N 50°36' E 000°18'921.4 330 / 151027.010.8 13.0-4.410.0
2015-Jan-26 20:33N 50°37' E 000°32'1211.8
2015-Jan-26 19:33N 50°44' E 000°48'1110.9
2015-Jan-26 18:33N 50°50' E 001°03'14 9.5
2015-Jan-26 17:04N 50°57' E 001°21'4 8.3
2015-Jan-26 16:34N 51°01' E 001°25'9 9.4
2015-Jan-26 15:34N 51°07' E 001°36'1313.3
2015-Jan-26 14:33N 51°17' E 001°50'1312.5
2015-Jan-26 13:32N 51°23' E 002°08'1414.5
2015-Jan-26 12:33N 51°23' E 002°31'1413.6
2015-Jan-26 11:33N 51°25' E 002°52'1716.8
2015-Jan-26 10:33N 51°24' E 003°19'1211.8
2015-Jan-26 09:34N 51°26' E 003°38'1212.2
2015-Jan-26 08:34N 51°23' E 003°57'9 9.2
2015-Jan-26 07:33N 51°24' E 004°12'5 4.5
2015-Jan-26 06:33N 51°21' E 004°17'2 1.6
2015-Jan-26 05:33N 51°20' E 004°19'1 1.2
2015-Jan-26 04:32N 51°20' E 004°21'0 0.0
2015-Jan-26 03:28N 51°20' E 004°21'0 0.0
2015-Jan-26 02:26N 51°20' E 004°21'0 0.0
2015-Jan-26 01:31N 51°20' E 004°21'0 0.0
2015-Jan-26 00:33N 51°20' E 004°21'0 0.0
2015-Jan-25 23:30N 51°20' E 004°21'0 0.0
2015-Jan-25 22:29N 51°20' E 004°21'0 0.0
2015-Jan-25 21:32N 51°20' E 004°21'0 0.0
2015-Jan-25 20:28N 51°20' E 004°21'0 0.0
2015-Jan-25 19:31N 51°20' E 004°21'0 0.0
2015-Jan-25 18:28N 51°20' E 004°21'0 0.0
2015-Jan-25 17:33N 51°20' E 004°21'0 0.0
2015-Jan-25 16:18N 51°20' E 004°21'0 0.0
2015-Jan-25 15:20N 51°20' E 004°21'0 0.0
2015-Jan-25 14:32N 51°20' E 004°21'0 0.0
2015-Jan-25 13:28N 51°20' E 004°21'0 0.0
2015-Jan-25 12:31N 51°20' E 004°21'0 0.0
2015-Jan-25 11:24N 51°20' E 004°21'0 0.0
2015-Jan-25 10:27N 51°20' E 004°21'0 0.0
2015-Jan-25 09:33N 51°20' E 004°21'0 0.0
2015-Jan-25 08:32N 51°20' E 004°21'0 0.0
2015-Jan-25 07:29N 51°20' E 004°21'0 0.0
2015-Jan-25 06:22N 51°20' E 004°21'0 0.0
2015-Jan-25 04:09N 51°20' E 004°21'0 0.0
2015-Jan-25 03:03N 51°20' E 004°21'0 0.0
2015-Jan-25 02:33N 51°20' E 004°21'0 0.0
2015-Jan-25 01:26N 51°20' E 004°21'0 0.0
2015-Jan-25 00:32N 51°20' E 004°21'0 0.0
2015-Jan-24 23:25N 51°20' E 004°21'0 0.0
2015-Jan-24 22:31N 51°20' E 004°21'0 0.0
2015-Jan-24 21:24N 51°20' E 004°21'0 0.0
2015-Jan-24 20:27N 51°20' E 004°21'0 0.0
2015-Jan-24 19:30N 51°20' E 004°21'0 0.0
2015-Jan-24 18:32N 51°20' E 004°21'0 0.0
2015-Jan-24 17:29N 51°20' E 004°21'0 0.0
2015-Jan-24 16:31N 51°20' E 004°21'0 0.0
2015-Jan-24 15:33N 51°20' E 004°21'2 2.3
2015-Jan-24 14:34N 51°21' E 004°17'2 1.5
2015-Jan-24 13:33N 51°21' E 004°15'9 8.8
2015-Jan-24 12:33N 51°24' E 004°02'9 9.1
2015-Jan-24 11:34N 51°21' E 003°49'10 9.7
2015-Jan-24 10:33N 51°25' E 003°34'7 6.6
2015-Jan-24 09:33N 51°24' E 003°24'8 7.6
2015-Jan-24 08:33N 51°24' E 003°12'1111.4
2015-Jan-24 07:33N 51°25' E 002°54'10 9.5
2015-Jan-24 06:33N 51°22' E 002°39'1414.1
2015-Jan-24 05:33N 51°19' E 002°17'1414.4
2015-Jan-24 04:33N 51°26' E 001°57'1414.2
2015-Jan-24 03:33N 51°38' E 001°46'1413.6
2015-Jan-24 02:34N 51°51' E 001°40'1111.0
2015-Jan-24 01:33N 51°56' E 001°23'4 3.7
2015-Jan-24 00:32N 51°58' E 001°18'0 0.0
2015-Jan-23 23:31N 51°58' E 001°18'0 0.0
2015-Jan-23 22:31N 51°58' E 001°18'0 0.0
2015-Jan-23 21:33N 51°58' E 001°18'0 0.0
2015-Jan-23 20:33N 51°58' E 001°18'0 0.0
2015-Jan-23 19:33N 51°58' E 001°18'0 0.0
2015-Jan-23 18:32N 51°58' E 001°18'0 0.0
2015-Jan-23 17:32N 51°58' E 001°18'0 0.0
2015-Jan-23 16:31N 51°58' E 001°18'0 0.0
2015-Jan-23 15:28N 51°58' E 001°18'0 0.0
2015-Jan-23 14:33N 51°58' E 001°18'0 0.0
2015-Jan-23 13:33N 51°58' E 001°18'0 0.0
2015-Jan-23 12:33N 51°58' E 001°18'0 0.0
2015-Jan-23 11:32N 51°58' E 001°18'0 0.0
2015-Jan-23 10:32N 51°58' E 001°18'0 0.0
2015-Jan-23 09:31N 51°58' E 001°18'0 0.0
2015-Jan-23 08:31N 51°58' E 001°18'0 0.0
2015-Jan-23 07:33N 51°58' E 001°18'1 0.6
2015-Jan-23 06:33N 51°57' E 001°18'9 9.5
2015-Jan-23 05:33N 51°55' E 001°33'8 8.3
2015-Jan-23 04:33N 51°51' E 001°45'8 8.0
2015-Jan-23 03:33N 51°44' E 001°49'1111.3
2015-Jan-23 02:33N 51°32' E 001°48'1111.4
2015-Jan-23 01:33N 51°21' E 001°44'1211.5
2015-Jan-23 00:33N 51°11' E 001°38'1312.9
2015-Jan-22 23:33N 50°59' E 001°30'1814.3
2015-Jan-22 22:16N 50°41' E 001°20'2015.5
2015-Jan-22 21:00N 50°30' E 000°54'612.3 050 / 201023.010.8 1.5 9.0-5.110.0
2015-Jan-22 20:31N 50°28' E 000°45'1414.2
2015-Jan-22 19:32N 50°24' E 000°24'82716.2
2015-Jan-20 16:24N 38°43' W 009°51'1819.7
2015-Jan-20 15:30N 38°26' W 009°47'2119.8
2015-Jan-20 14:26N 38°05' W 009°39'1819.9
2015-Jan-20 13:33N 37°48' W 009°36'2020.1
2015-Jan-20 12:32N 37°28' W 009°29'7317.7
2015-Jan-20 08:24N 36°33' W 008°28'  
Track history (hours):
 
Tides and Currents Weather Stations Pressure Air Temp Water Temp Dewpoint Dewpoint Depression Visibility Wind Speed Wind Dir Waves Ship Positions

MSC Cordoba

Last reported at 2015-Jan-30 02:20 UTC. Time now 2015-Jan-30 06:25 UTC.
Position N 36°32' W 000°34'.

Length 274 m; draft 11.9 m.

Type: Ship (hazmat cat A). MMSI: 636091473.

Date/timePositionNaut miles runAvg speedWind from/ knotsBaromVisibWave heightAir tempDewpointWater temp
2015-Jan-30 02:20N 36°32' W 000°34'11521.5
2015-Jan-29 21:00N 36°12' W 002°54'12222.5 280 / 411014.010.8 3.019.0 8.515.0
2015-Jan-29 15:34N 35°57' W 005°24'23719.6
2015-Jan-29 03:26N 37°41' W 009°50'6521.9
2015-Jan-29 00:28N 38°45' W 010°07'7521.6
2015-Jan-28 21:00N 40°00' W 010°06'75216.5 300 / 141028.9 5.4 1.018.0 9.214.0
2015-Jan-26 23:33N 50°27' W 000°18'1210.2
2015-Jan-26 22:23N 50°30' E 000°00'1111.4
2015-Jan-26 21:26N 50°34' E 000°17'3 5.6
2015-Jan-26 21:00N 50°36' E 000°18'921.4 330 / 151027.010.8 13.0-4.410.0
2015-Jan-26 20:33N 50°37' E 000°32'1211.8
2015-Jan-26 19:33N 50°44' E 000°48'1110.9
2015-Jan-26 18:33N 50°50' E 001°03'14 9.5
2015-Jan-26 17:04N 50°57' E 001°21'4 8.3
2015-Jan-26 16:34N 51°01' E 001°25'9 9.4
2015-Jan-26 15:34N 51°07' E 001°36'1313.3
2015-Jan-26 14:33N 51°17' E 001°50'1312.5
2015-Jan-26 13:32N 51°23' E 002°08'1414.5
2015-Jan-26 12:33N 51°23' E 002°31'1413.6
2015-Jan-26 11:33N 51°25' E 002°52'1716.8
2015-Jan-26 10:33N 51°24' E 003°19'1211.8
2015-Jan-26 09:34N 51°26' E 003°38'1212.2
2015-Jan-26 08:34N 51°23' E 003°57'9 9.2
2015-Jan-26 07:33N 51°24' E 004°12'5 4.5
2015-Jan-26 06:33N 51°21' E 004°17'2 1.6
2015-Jan-26 05:33N 51°20' E 004°19'1 1.2
2015-Jan-26 04:32N 51°20' E 004°21'0 0.0
2015-Jan-26 03:28N 51°20' E 004°21'0 0.0
2015-Jan-26 02:26N 51°20' E 004°21'0 0.0
2015-Jan-26 01:31N 51°20' E 004°21'0 0.0
2015-Jan-26 00:33N 51°20' E 004°21'0 0.0
2015-Jan-25 23:30N 51°20' E 004°21'0 0.0
2015-Jan-25 22:29N 51°20' E 004°21'0 0.0
2015-Jan-25 21:32N 51°20' E 004°21'0 0.0
2015-Jan-25 20:28N 51°20' E 004°21'0 0.0
2015-Jan-25 19:31N 51°20' E 004°21'0 0.0
2015-Jan-25 18:28N 51°20' E 004°21'0 0.0
2015-Jan-25 17:33N 51°20' E 004°21'0 0.0
2015-Jan-25 16:18N 51°20' E 004°21'0 0.0
2015-Jan-25 15:20N 51°20' E 004°21'0 0.0
2015-Jan-25 14:32N 51°20' E 004°21'0 0.0
2015-Jan-25 13:28N 51°20' E 004°21'0 0.0
2015-Jan-25 12:31N 51°20' E 004°21'0 0.0
2015-Jan-25 11:24N 51°20' E 004°21'0 0.0
2015-Jan-25 10:27N 51°20' E 004°21'0 0.0
2015-Jan-25 09:33N 51°20' E 004°21'0 0.0
2015-Jan-25 08:32N 51°20' E 004°21'0 0.0
2015-Jan-25 07:29N 51°20' E 004°21'0 0.0
2015-Jan-25 06:22N 51°20' E 004°21'0 0.0
2015-Jan-25 04:09N 51°20' E 004°21'0 0.0
2015-Jan-25 03:03N 51°20' E 004°21'0 0.0
2015-Jan-25 02:33N 51°20' E 004°21'0 0.0
2015-Jan-25 01:26N 51°20' E 004°21'0 0.0
2015-Jan-25 00:32N 51°20' E 004°21'0 0.0
2015-Jan-24 23:25N 51°20' E 004°21'0 0.0
2015-Jan-24 22:31N 51°20' E 004°21'0 0.0
2015-Jan-24 21:24N 51°20' E 004°21'0 0.0
2015-Jan-24 20:27N 51°20' E 004°21'0 0.0
2015-Jan-24 19:30N 51°20' E 004°21'0 0.0
2015-Jan-24 18:32N 51°20' E 004°21'0 0.0
2015-Jan-24 17:29N 51°20' E 004°21'0 0.0
2015-Jan-24 16:31N 51°20' E 004°21'0 0.0
2015-Jan-24 15:33N 51°20' E 004°21'2 2.3
2015-Jan-24 14:34N 51°21' E 004°17'2 1.5
2015-Jan-24 13:33N 51°21' E 004°15'9 8.8
2015-Jan-24 12:33N 51°24' E 004°02'9 9.1
2015-Jan-24 11:34N 51°21' E 003°49'10 9.7
2015-Jan-24 10:33N 51°25' E 003°34'7 6.6
2015-Jan-24 09:33N 51°24' E 003°24'8 7.6
2015-Jan-24 08:33N 51°24' E 003°12'1111.4
2015-Jan-24 07:33N 51°25' E 002°54'10 9.5
2015-Jan-24 06:33N 51°22' E 002°39'1414.1
2015-Jan-24 05:33N 51°19' E 002°17'1414.4
2015-Jan-24 04:33N 51°26' E 001°57'1414.2
2015-Jan-24 03:33N 51°38' E 001°46'1413.6
2015-Jan-24 02:34N 51°51' E 001°40'1111.0
2015-Jan-24 01:33N 51°56' E 001°23'4 3.7
2015-Jan-24 00:32N 51°58' E 001°18'0 0.0
2015-Jan-23 23:31N 51°58' E 001°18'0 0.0
2015-Jan-23 22:31N 51°58' E 001°18'0 0.0
2015-Jan-23 21:33N 51°58' E 001°18'0 0.0
2015-Jan-23 20:33N 51°58' E 001°18'0 0.0
2015-Jan-23 19:33N 51°58' E 001°18'0 0.0
2015-Jan-23 18:32N 51°58' E 001°18'0 0.0
2015-Jan-23 17:32N 51°58' E 001°18'0 0.0
2015-Jan-23 16:31N 51°58' E 001°18'0 0.0
2015-Jan-23 15:28N 51°58' E 001°18'0 0.0
2015-Jan-23 14:33N 51°58' E 001°18'0 0.0
2015-Jan-23 13:33N 51°58' E 001°18'0 0.0
2015-Jan-23 12:33N 51°58' E 001°18'0 0.0
2015-Jan-23 11:32N 51°58' E 001°18'0 0.0
2015-Jan-23 10:32N 51°58' E 001°18'0 0.0
2015-Jan-23 09:31N 51°58' E 001°18'0 0.0
2015-Jan-23 08:31N 51°58' E 001°18'0 0.0
2015-Jan-23 07:33N 51°58' E 001°18'1 0.6
2015-Jan-23 06:33N 51°57' E 001°18'9 9.5
2015-Jan-23 05:33N 51°55' E 001°33'8 8.3
2015-Jan-23 04:33N 51°51' E 001°45'8 8.0
2015-Jan-23 03:33N 51°44' E 001°49'1111.3
2015-Jan-23 02:33N 51°32' E 001°48'1111.4
2015-Jan-23 01:33N 51°21' E 001°44'1211.5
2015-Jan-23 00:33N 51°11' E 001°38'1312.9
2015-Jan-22 23:33N 50°59' E 001°30'1814.3
2015-Jan-22 22:16N 50°41' E 001°20'2015.5
2015-Jan-22 21:00N 50°30' E 000°54'612.3 050 / 201023.010.8 1.5 9.0-5.110.0
2015-Jan-22 20:31N 50°28' E 000°45'1414.2
2015-Jan-22 19:32N 50°24' E 000°24'82716.2
2015-Jan-20 16:24N 38°43' W 009°51'1819.7
2015-Jan-20 15:30N 38°26' W 009°47'2119.8
2015-Jan-20 14:26N 38°05' W 009°39'1819.9
2015-Jan-20 13:33N 37°48' W 009°36'2020.1
2015-Jan-20 12:32N 37°28' W 009°29'7317.7
2015-Jan-20 08:24N 36°33' W 008°28'  

Dump ship's entire track history